sensor_id;sensor_type;location;lat;lon;timestamp;P1;durP1;ratioP1;P2;durP2;ratioP2
39308;SDS011;26019;47.510;19.122;2023-12-20T00:10:02;39.50;;;16.60;;
39308;SDS011;26019;47.510;19.122;2023-12-20T00:30:09;29.88;;;13.95;;
39308;SDS011;26019;47.510;19.122;2023-12-20T00:40:18;36.30;;;16.70;;
39308;SDS011;26019;47.510;19.122;2023-12-20T00:50:21;41.15;;;16.67;;
39308;SDS011;26019;47.510;19.122;2023-12-20T01:00:26;38.33;;;17.45;;
39308;SDS011;26019;47.510;19.122;2023-12-20T01:10:30;29.33;;;15.02;;
39308;SDS011;26019;47.510;19.122;2023-12-20T01:20:32;32.15;;;14.27;;
39308;SDS011;26019;47.510;19.122;2023-12-20T01:30:34;42.22;;;16.05;;
39308;SDS011;26019;47.510;19.122;2023-12-20T01:40:38;40.42;;;18.02;;
39308;SDS011;26019;47.510;19.122;2023-12-20T01:50:40;41.03;;;15.77;;
39308;SDS011;26019;47.510;19.122;2023-12-20T02:00:43;45.50;;;18.70;;
39308;SDS011;26019;47.510;19.122;2023-12-20T02:10:47;46.20;;;18.08;;
39308;SDS011;26019;47.510;19.122;2023-12-20T02:20:52;56.38;;;19.13;;
39308;SDS011;26019;47.510;19.122;2023-12-20T02:30:56;54.75;;;20.73;;
39308;SDS011;26019;47.510;19.122;2023-12-20T02:40:59;50.60;;;19.48;;
39308;SDS011;26019;47.510;19.122;2023-12-20T02:51:00;59.67;;;20.55;;
39308;SDS011;26019;47.510;19.122;2023-12-20T03:01:02;78.55;;;20.08;;
39308;SDS011;26019;47.510;19.122;2023-12-20T03:11:04;56.00;;;21.50;;
39308;SDS011;26019;47.510;19.122;2023-12-20T03:21:06;52.75;;;23.00;;
39308;SDS011;26019;47.510;19.122;2023-12-20T03:31:09;52.95;;;20.23;;
39308;SDS011;26019;47.510;19.122;2023-12-20T03:41:12;50.67;;;22.30;;
39308;SDS011;26019;47.510;19.122;2023-12-20T03:51:13;51.90;;;21.52;;
39308;SDS011;26019;47.510;19.122;2023-12-20T04:01:15;51.20;;;22.33;;
39308;SDS011;26019;47.510;19.122;2023-12-20T04:11:17;50.78;;;21.08;;
39308;SDS011;26019;47.510;19.122;2023-12-20T04:21:19;50.42;;;17.90;;
39308;SDS011;26019;47.510;19.122;2023-12-20T04:31:21;50.13;;;20.42;;
39308;SDS011;26019;47.510;19.122;2023-12-20T04:41:23;47.05;;;19.42;;
39308;SDS011;26019;47.510;19.122;2023-12-20T04:51:25;59.15;;;19.70;;
39308;SDS011;26019;47.510;19.122;2023-12-20T05:01:39;50.30;;;19.58;;
39308;SDS011;26019;47.510;19.122;2023-12-20T05:21:43;46.95;;;21.20;;
39308;SDS011;26019;47.510;19.122;2023-12-20T05:31:45;58.53;;;21.33;;
39308;SDS011;26019;47.510;19.122;2023-12-20T05:41:48;51.40;;;23.23;;
39308;SDS011;26019;47.510;19.122;2023-12-20T05:51:51;52.33;;;22.17;;
39308;SDS011;26019;47.510;19.122;2023-12-20T06:02:03;47.05;;;21.92;;
39308;SDS011;26019;47.510;19.122;2023-12-20T06:12:07;81.28;;;23.38;;
39308;SDS011;26019;47.510;19.122;2023-12-20T06:22:15;62.10;;;21.88;;
39308;SDS011;26019;47.510;19.122;2023-12-20T06:32:19;52.27;;;22.87;;
39308;SDS011;26019;47.510;19.122;2023-12-20T06:42:22;87.18;;;21.35;;
39308;SDS011;26019;47.510;19.122;2023-12-20T06:52:23;56.50;;;22.40;;
39308;SDS011;26019;47.510;19.122;2023-12-20T07:02:25;58.97;;;22.10;;
39308;SDS011;26019;47.510;19.122;2023-12-20T07:12:30;61.38;;;23.42;;
39308;SDS011;26019;47.510;19.122;2023-12-20T07:22:33;54.13;;;23.33;;
39308;SDS011;26019;47.510;19.122;2023-12-20T07:32:35;54.63;;;21.70;;
39308;SDS011;26019;47.510;19.122;2023-12-20T07:42:37;60.33;;;25.02;;
39308;SDS011;26019;47.510;19.122;2023-12-20T07:52:39;61.75;;;26.02;;
39308;SDS011;26019;47.510;19.122;2023-12-20T08:02:43;65.43;;;26.02;;
39308;SDS011;26019;47.510;19.122;2023-12-20T08:12:45;58.92;;;25.90;;
39308;SDS011;26019;47.510;19.122;2023-12-20T08:22:47;64.55;;;27.25;;
39308;SDS011;26019;47.510;19.122;2023-12-20T08:32:49;57.92;;;25.40;;
39308;SDS011;26019;47.510;19.122;2023-12-20T08:42:51;70.18;;;29.67;;
39308;SDS011;26019;47.510;19.122;2023-12-20T08:52:53;77.57;;;25.83;;
39308;SDS011;26019;47.510;19.122;2023-12-20T09:02:55;61.95;;;27.10;;
39308;SDS011;26019;47.510;19.122;2023-12-20T09:12:57;67.22;;;27.42;;
39308;SDS011;26019;47.510;19.122;2023-12-20T09:22:59;69.72;;;29.20;;
39308;SDS011;26019;47.510;19.122;2023-12-20T09:33:01;65.60;;;28.77;;
39308;SDS011;26019;47.510;19.122;2023-12-20T09:43:04;60.35;;;26.40;;
39308;SDS011;26019;47.510;19.122;2023-12-20T09:53:11;60.53;;;28.02;;
39308;SDS011;26019;47.510;19.122;2023-12-20T10:03:17;64.13;;;28.05;;
39308;SDS011;26019;47.510;19.122;2023-12-20T10:13:24;63.33;;;28.13;;
39308;SDS011;26019;47.510;19.122;2023-12-20T10:23:26;59.22;;;29.77;;
39308;SDS011;26019;47.510;19.122;2023-12-20T10:33:28;69.95;;;30.63;;
39308;SDS011;26019;47.510;19.122;2023-12-20T10:43:34;65.95;;;30.30;;
39308;SDS011;26019;47.510;19.122;2023-12-20T10:53:39;65.05;;;29.02;;
39308;SDS011;26019;47.510;19.122;2023-12-20T11:03:51;63.77;;;31.23;;
39308;SDS011;26019;47.510;19.122;2023-12-20T11:14:00;61.87;;;29.87;;
39308;SDS011;26019;47.510;19.122;2023-12-20T11:24:05;69.22;;;29.58;;
39308;SDS011;26019;47.510;19.122;2023-12-20T11:34:14;72.55;;;31.85;;
39308;SDS011;26019;47.510;19.122;2023-12-20T11:44:17;73.70;;;31.48;;
39308;SDS011;26019;47.510;19.122;2023-12-20T11:54:19;64.50;;;31.57;;
39308;SDS011;26019;47.510;19.122;2023-12-20T12:04:21;70.40;;;31.95;;
39308;SDS011;26019;47.510;19.122;2023-12-20T12:14:24;68.35;;;31.60;;
39308;SDS011;26019;47.510;19.122;2023-12-20T12:34:28;34.67;;;17.55;;
39308;SDS011;26019;47.510;19.122;2023-12-20T12:44:29;27.50;;;14.00;;
39308;SDS011;26019;47.510;19.122;2023-12-20T12:54:32;21.60;;;10.43;;
39308;SDS011;26019;47.510;19.122;2023-12-20T13:04:36;17.97;;;9.50;;
39308;SDS011;26019;47.510;19.122;2023-12-20T13:14:38;18.13;;;9.68;;
39308;SDS011;26019;47.510;19.122;2023-12-20T13:24:40;15.25;;;9.15;;
39308;SDS011;26019;47.510;19.122;2023-12-20T13:34:43;14.20;;;8.63;;
39308;SDS011;26019;47.510;19.122;2023-12-20T13:44:45;16.10;;;8.43;;
39308;SDS011;26019;47.510;19.122;2023-12-20T13:54:46;14.25;;;8.32;;
39308;SDS011;26019;47.510;19.122;2023-12-20T14:04:49;14.82;;;9.00;;
39308;SDS011;26019;47.510;19.122;2023-12-20T14:14:51;13.80;;;8.55;;
39308;SDS011;26019;47.510;19.122;2023-12-20T14:24:59;12.98;;;8.45;;
39308;SDS011;26019;47.510;19.122;2023-12-20T14:35:02;14.80;;;8.40;;
39308;SDS011;26019;47.510;19.122;2023-12-20T14:45:06;14.57;;;8.50;;
39308;SDS011;26019;47.510;19.122;2023-12-20T14:55:08;13.48;;;8.32;;
39308;SDS011;26019;47.510;19.122;2023-12-20T15:05:10;9.52;;;6.13;;
39308;SDS011;26019;47.510;19.122;2023-12-20T15:15:12;9.10;;;5.68;;
39308;SDS011;26019;47.510;19.122;2023-12-20T15:25:14;13.77;;;7.50;;
39308;SDS011;26019;47.510;19.122;2023-12-20T15:35:25;12.88;;;7.85;;
39308;SDS011;26019;47.510;19.122;2023-12-20T15:45:27;14.75;;;7.88;;
39308;SDS011;26019;47.510;19.122;2023-12-20T15:55:28;11.45;;;7.60;;
39308;SDS011;26019;47.510;19.122;2023-12-20T16:05:30;13.80;;;8.20;;
39308;SDS011;26019;47.510;19.122;2023-12-20T16:15:32;15.00;;;9.07;;
39308;SDS011;26019;47.510;19.122;2023-12-20T16:25:34;16.75;;;10.00;;
39308;SDS011;26019;47.510;19.122;2023-12-20T16:35:40;15.45;;;8.85;;
39308;SDS011;26019;47.510;19.122;2023-12-20T16:45:42;18.70;;;11.23;;
39308;SDS011;26019;47.510;19.122;2023-12-20T16:55:44;17.08;;;10.15;;
39308;SDS011;26019;47.510;19.122;2023-12-20T17:05:46;15.93;;;10.27;;
39308;SDS011;26019;47.510;19.122;2023-12-20T17:15:49;18.90;;;10.02;;
39308;SDS011;26019;47.510;19.122;2023-12-20T17:25:51;20.47;;;10.93;;
39308;SDS011;26019;47.510;19.122;2023-12-20T17:35:58;18.77;;;11.65;;
39308;SDS011;26019;47.510;19.122;2023-12-20T17:46:01;20.13;;;11.68;;
39308;SDS011;26019;47.510;19.122;2023-12-20T17:56:03;20.20;;;11.40;;
39308;SDS011;26019;47.510;19.122;2023-12-20T18:06:06;17.30;;;10.45;;
39308;SDS011;26019;47.510;19.122;2023-12-20T18:16:08;18.38;;;9.48;;
39308;SDS011;26019;47.510;19.122;2023-12-20T18:26:11;16.67;;;9.90;;
39308;SDS011;26019;47.510;19.122;2023-12-20T18:36:14;15.57;;;9.68;;
39308;SDS011;26019;47.510;19.122;2023-12-20T18:46:16;18.70;;;10.10;;
39308;SDS011;26019;47.510;19.122;2023-12-20T18:56:19;17.13;;;10.20;;
39308;SDS011;26019;47.510;19.122;2023-12-20T19:06:22;17.10;;;10.27;;
39308;SDS011;26019;47.510;19.122;2023-12-20T19:16:24;17.15;;;9.85;;
39308;SDS011;26019;47.510;19.122;2023-12-20T19:26:28;16.33;;;10.52;;
39308;SDS011;26019;47.510;19.122;2023-12-20T19:36:32;16.97;;;9.63;;
39308;SDS011;26019;47.510;19.122;2023-12-20T19:46:35;16.08;;;11.02;;
39308;SDS011;26019;47.510;19.122;2023-12-20T19:56:38;14.98;;;9.75;;
39308;SDS011;26019;47.510;19.122;2023-12-20T20:06:43;16.00;;;9.82;;
39308;SDS011;26019;47.510;19.122;2023-12-20T20:16:45;15.50;;;9.27;;
39308;SDS011;26019;47.510;19.122;2023-12-20T20:36:56;16.95;;;10.05;;
39308;SDS011;26019;47.510;19.122;2023-12-20T20:46:58;17.13;;;9.87;;
39308;SDS011;26019;47.510;19.122;2023-12-20T20:57:02;20.13;;;10.57;;
39308;SDS011;26019;47.510;19.122;2023-12-20T21:07:05;19.23;;;11.60;;
39308;SDS011;26019;47.510;19.122;2023-12-20T21:17:07;16.80;;;10.48;;
39308;SDS011;26019;47.510;19.122;2023-12-20T21:27:09;17.73;;;10.52;;
39308;SDS011;26019;47.510;19.122;2023-12-20T21:37:11;16.80;;;10.98;;
39308;SDS011;26019;47.510;19.122;2023-12-20T21:47:15;19.27;;;11.35;;
39308;SDS011;26019;47.510;19.122;2023-12-20T22:07:20;13.85;;;8.10;;
39308;SDS011;26019;47.510;19.122;2023-12-20T22:17:22;14.13;;;8.23;;
39308;SDS011;26019;47.510;19.122;2023-12-20T22:37:29;14.05;;;8.88;;
39308;SDS011;26019;47.510;19.122;2023-12-20T22:47:32;12.40;;;8.30;;
39308;SDS011;26019;47.510;19.122;2023-12-20T22:57:35;13.80;;;8.05;;
39308;SDS011;26019;47.510;19.122;2023-12-20T23:07:37;13.13;;;7.93;;
39308;SDS011;26019;47.510;19.122;2023-12-20T23:17:40;15.15;;;8.30;;
39308;SDS011;26019;47.510;19.122;2023-12-20T23:27:43;13.07;;;8.63;;
39308;SDS011;26019;47.510;19.122;2023-12-20T23:37:49;15.30;;;8.15;;
39308;SDS011;26019;47.510;19.122;2023-12-20T23:47:52;13.17;;;8.30;;
